createdAt,value
2019-04-07T00:00:34.593Z,13.09
2019-04-07T00:01:34.558Z,13.02
2019-04-07T00:02:34.633Z,13.08
2019-04-07T00:03:34.609Z,13.14
2019-04-07T00:04:34.520Z,13.09
2019-04-07T00:05:34.581Z,13.08
2019-04-07T00:06:35.071Z,13.02
2019-04-07T00:07:34.629Z,13.16
2019-04-07T00:08:34.482Z,13.16
2019-04-07T00:09:34.470Z,13.09
2019-04-07T00:10:34.454Z,13.13
2019-04-07T00:11:34.607Z,13.23
2019-04-07T00:12:34.627Z,13.24
2019-04-07T00:13:34.429Z,13.16
2019-04-07T00:14:34.414Z,13.20
2019-04-07T00:15:34.506Z,13.19
2019-04-07T00:16:34.448Z,13.17
2019-04-07T00:17:34.376Z,13.08
2019-04-07T00:18:34.381Z,13.11
2019-04-07T00:19:34.924Z,12.91
2019-04-07T00:20:34.359Z,12.93
2019-04-07T00:21:34.370Z,12.88
2019-04-07T00:22:34.543Z,12.95
2019-04-07T00:23:34.312Z,12.81
2019-04-07T00:24:34.331Z,12.77
2019-04-07T00:25:34.285Z,12.83
2019-04-07T00:26:34.442Z,12.79
2019-04-07T00:27:34.311Z,12.76
2019-04-07T00:28:34.305Z,12.65
2019-04-07T00:29:34.421Z,12.54
2019-04-07T00:30:34.256Z,12.62
2019-04-07T00:31:34.255Z,12.59
2019-04-07T00:32:34.214Z,12.65
2019-04-07T00:33:34.204Z,12.65
2019-04-07T00:34:34.715Z,12.51
2019-04-07T00:35:34.171Z,12.54
2019-04-07T00:36:34.236Z,12.72
2019-04-07T00:37:34.177Z,12.55
2019-04-07T00:38:34.699Z,12.61
2019-04-07T00:39:34.578Z,12.62
2019-04-07T00:40:34.128Z,12.62
2019-04-07T00:41:34.118Z,12.58
2019-04-07T00:42:34.679Z,12.59
2019-04-07T00:43:34.250Z,12.61
2019-04-07T00:44:34.377Z,12.51
2019-04-07T00:45:34.062Z,12.54
2019-04-07T00:46:34.443Z,12.53
2019-04-07T00:47:34.077Z,12.65
2019-04-07T00:48:34.035Z,12.53
2019-04-07T00:49:34.649Z,12.62
2019-04-07T00:50:33.998Z,12.68
2019-04-07T00:51:34.218Z,12.68
2019-04-07T00:52:34.005Z,12.63
2019-04-07T00:53:34.319Z,12.66
2019-04-07T00:54:33.954Z,12.68
2019-04-07T00:55:34.305Z,12.66
2019-04-07T00:56:33.931Z,12.72
2019-04-07T00:57:33.972Z,12.62
2019-04-07T00:58:34.382Z,12.72
2019-04-07T00:59:33.901Z,12.80
2019-04-07T01:00:34.603Z,12.66
2019-04-07T01:01:33.892Z,12.68
2019-04-07T01:02:33.864Z,12.80
2019-04-07T01:03:33.881Z,12.79
2019-04-07T01:04:34.303Z,12.83
2019-04-07T01:05:38.391Z,12.93
2019-04-07T01:06:34.830Z,12.88
2019-04-07T01:07:34.468Z,12.90
2019-04-07T01:08:33.822Z,12.93
2019-04-07T01:09:34.108Z,12.96
2019-04-07T01:10:33.862Z,12.96
2019-04-07T01:11:34.295Z,12.90
2019-04-07T01:12:33.752Z,13.01
2019-04-07T01:13:33.765Z,12.86
2019-04-07T01:14:33.726Z,12.84
2019-04-07T01:15:33.983Z,12.90
2019-04-07T01:16:33.711Z,12.95
2019-04-07T01:17:33.691Z,12.91
2019-04-07T01:18:33.893Z,12.93
2019-04-07T01:19:34.370Z,12.87
2019-04-07T01:20:33.662Z,12.84
2019-04-07T01:21:33.653Z,12.81
2019-04-07T01:22:34.607Z,12.88
2019-04-07T01:23:33.727Z,12.84
2019-04-07T01:24:34.132Z,12.79
2019-04-07T01:25:33.608Z,12.86
2019-04-07T01:26:33.924Z,12.88
2019-04-07T01:27:33.697Z,12.63
2019-04-07T01:28:33.569Z,12.73
2019-04-07T01:29:34.159Z,12.68
2019-04-07T01:30:33.655Z,12.71
2019-04-07T01:31:34.129Z,12.62
2019-04-07T01:32:33.533Z,12.62
2019-04-07T01:33:33.579Z,12.58
2019-04-07T01:34:34.066Z,12.61
2019-04-07T01:35:44.438Z,12.46
2019-04-07T01:36:34.482Z,12.61
2019-04-07T01:37:34.068Z,12.53
2019-04-07T01:38:33.452Z,12.62
2019-04-07T01:39:33.713Z,12.50
2019-04-07T01:40:33.780Z,12.48
2019-04-07T01:41:34.057Z,12.65
2019-04-07T01:42:33.479Z,12.50
2019-04-07T01:43:33.936Z,12.53
2019-04-07T01:44:33.495Z,12.51
2019-04-07T01:45:33.391Z,12.62
2019-04-07T01:46:33.901Z,12.61
2019-04-07T01:47:33.357Z,12.59
2019-04-07T01:48:33.363Z,12.58
2019-04-07T01:49:33.860Z,12.58
2019-04-07T01:50:33.861Z,12.61
2019-04-07T01:51:33.361Z,12.48
2019-04-07T01:52:33.729Z,12.55
2019-04-07T01:53:33.414Z,12.61
2019-04-07T01:54:33.410Z,12.53
2019-04-07T01:55:33.531Z,12.50
2019-04-07T01:56:33.760Z,12.53
2019-04-07T01:57:33.874Z,12.66
2019-04-07T01:58:33.826Z,12.59
2019-04-07T01:59:33.216Z,12.61
2019-04-07T02:00:33.781Z,12.61
2019-04-07T02:01:33.817Z,12.62
2019-04-07T02:02:33.325Z,12.59
2019-04-07T02:03:33.202Z,12.54
2019-04-07T02:04:33.562Z,12.63
2019-04-07T02:05:33.160Z,12.55
2019-04-07T02:06:33.319Z,12.59
2019-04-07T02:07:33.797Z,12.63
2019-04-07T02:08:33.146Z,12.54
2019-04-07T02:09:33.703Z,12.41
2019-04-07T02:10:33.126Z,12.65
2019-04-07T02:11:33.126Z,12.55
2019-04-07T02:12:33.432Z,12.53
2019-04-07T02:13:33.059Z,12.61
2019-04-07T02:14:33.047Z,12.68
2019-04-07T02:15:33.066Z,12.58
2019-04-07T02:16:33.023Z,12.59
2019-04-07T02:17:33.016Z,12.53
2019-04-07T02:18:33.001Z,12.59
2019-04-07T02:19:33.665Z,12.53
2019-04-07T02:20:33.335Z,12.55
2019-04-07T02:21:32.971Z,12.46
2019-04-07T02:22:32.961Z,12.55
2019-04-07T02:23:32.945Z,12.65
2019-04-07T02:24:33.410Z,12.58
2019-04-07T02:25:32.953Z,12.55
2019-04-07T02:26:33.221Z,12.50
2019-04-07T02:27:33.420Z,12.53
2019-04-07T02:28:33.035Z,12.63
2019-04-07T02:29:33.437Z,12.50
2019-04-07T02:30:33.192Z,12.44
2019-04-07T02:31:32.886Z,12.51
2019-04-07T02:32:32.856Z,12.50
2019-04-07T02:33:33.155Z,12.53
2019-04-07T02:34:33.847Z,12.68
2019-04-07T02:35:32.820Z,12.69
2019-04-07T02:36:33.784Z,12.55
2019-04-07T02:37:33.346Z,12.63
2019-04-07T02:38:33.461Z,12.51
2019-04-07T02:39:32.866Z,12.47
2019-04-07T02:40:33.071Z,12.58
2019-04-07T02:41:32.775Z,12.61
2019-04-07T02:42:32.733Z,12.46
2019-04-07T02:43:32.797Z,12.51
2019-04-07T02:44:33.634Z,12.44
2019-04-07T02:45:32.698Z,12.47
2019-04-07T02:46:33.292Z,12.48
2019-04-07T02:47:32.679Z,12.46
2019-04-07T02:48:32.663Z,12.53
2019-04-07T02:49:33.808Z,12.40
2019-04-07T02:50:33.322Z,12.25
2019-04-07T02:51:32.663Z,12.38
2019-04-07T02:52:33.191Z,12.29
2019-04-07T02:53:33.005Z,12.36
2019-04-07T02:54:32.598Z,12.33
2019-04-07T02:55:33.511Z,12.32
2019-04-07T02:56:32.612Z,12.36
2019-04-07T02:57:32.588Z,12.30
2019-04-07T02:58:32.828Z,12.28
2019-04-07T02:59:33.468Z,12.28
2019-04-07T03:00:32.541Z,12.29
2019-04-07T03:01:33.002Z,12.33
2019-04-07T03:02:33.322Z,12.21
2019-04-07T03:03:33.093Z,12.26
2019-04-07T03:04:32.943Z,12.32
2019-04-07T03:05:33.264Z,12.33
2019-04-07T03:06:43.212Z,12.30
2019-04-07T03:07:33.482Z,12.26
2019-04-07T03:08:32.582Z,12.30
2019-04-07T03:09:33.424Z,12.14
2019-04-07T03:10:33.484Z,12.22
2019-04-07T03:11:32.860Z,12.28
2019-04-07T03:12:33.268Z,12.21
2019-04-07T03:13:33.064Z,12.21
2019-04-07T03:14:33.386Z,12.21
2019-04-07T03:15:32.800Z,12.25
2019-04-07T03:16:32.359Z,12.08
2019-04-07T03:17:32.347Z,12.15
2019-04-07T03:18:33.106Z,12.03
2019-04-07T03:19:33.305Z,12.03
2019-04-07T03:20:32.556Z,12.04
2019-04-07T03:21:33.050Z,11.95
2019-04-07T03:22:32.500Z,11.99
2019-04-07T03:23:32.311Z,11.91
2019-04-07T03:24:32.470Z,11.96
2019-04-07T03:25:32.550Z,11.93
2019-04-07T03:26:32.422Z,11.85
2019-04-07T03:27:32.250Z,11.95
2019-04-07T03:28:33.264Z,11.91
2019-04-07T03:29:33.165Z,11.82
2019-04-07T03:30:33.150Z,11.84
2019-04-07T03:31:32.879Z,11.88
2019-04-07T03:32:33.683Z,11.73
2019-04-07T03:33:33.522Z,11.71
2019-04-07T03:34:33.613Z,11.70
2019-04-07T03:35:34.081Z,11.71
2019-04-07T03:36:41.140Z,11.71
2019-04-07T03:37:38.735Z,11.77
2019-04-07T03:38:33.542Z,11.66
2019-04-07T03:39:33.224Z,11.79
2019-04-07T03:40:32.078Z,11.74
2019-04-07T03:41:33.112Z,11.70
2019-04-07T03:42:32.773Z,11.76
2019-04-07T03:43:32.138Z,11.69
2019-04-07T03:44:32.276Z,11.69
2019-04-07T03:45:32.549Z,11.66
2019-04-07T03:46:32.594Z,11.70
2019-04-07T03:47:32.157Z,11.69
2019-04-07T03:48:32.013Z,11.51
2019-04-07T03:49:31.989Z,11.48
2019-04-07T03:50:31.960Z,11.70
2019-04-07T03:51:32.257Z,11.69
2019-04-07T03:52:32.227Z,11.66
2019-04-07T03:53:32.388Z,11.56
2019-04-07T03:54:31.964Z,11.51
2019-04-07T03:55:31.907Z,11.55
2019-04-07T03:56:31.890Z,11.58
2019-04-07T03:57:32.472Z,11.54
2019-04-07T03:58:32.287Z,11.48
2019-04-07T03:59:31.911Z,11.54
2019-04-07T04:00:31.852Z,11.54
2019-04-07T04:01:33.028Z,11.55
2019-04-07T04:02:31.840Z,11.54
2019-04-07T04:03:32.240Z,11.64
2019-04-07T04:04:31.834Z,11.41
2019-04-07T04:05:32.454Z,11.58
2019-04-07T04:06:32.259Z,11.54
2019-04-07T04:07:36.111Z,11.55
2019-04-07T04:08:32.770Z,11.58
2019-04-07T04:09:32.440Z,11.62
2019-04-07T04:10:31.780Z,11.58
2019-04-07T04:11:32.372Z,11.59
2019-04-07T04:12:31.895Z,11.58
2019-04-07T04:13:32.712Z,11.64
2019-04-07T04:14:31.721Z,11.46
2019-04-07T04:15:31.714Z,11.55
2019-04-07T04:16:32.078Z,11.55
2019-04-07T04:17:32.714Z,11.54
2019-04-07T04:18:31.650Z,11.52
2019-04-07T04:19:31.638Z,11.54
2019-04-07T04:20:32.291Z,11.51
2019-04-07T04:21:31.619Z,11.49
2019-04-07T04:22:32.514Z,11.61
2019-04-07T04:23:31.739Z,11.43
2019-04-07T04:24:31.770Z,11.43
2019-04-07T04:25:32.204Z,11.48
2019-04-07T04:26:31.843Z,11.52
2019-04-07T04:27:31.551Z,11.58
2019-04-07T04:28:31.677Z,11.58
2019-04-07T04:29:31.818Z,11.52
2019-04-07T04:30:32.047Z,11.49
2019-04-07T04:31:31.527Z,11.51
2019-04-07T04:32:31.649Z,11.49
2019-04-07T04:33:31.488Z,11.43
2019-04-07T04:34:31.846Z,11.52
2019-04-07T04:35:32.320Z,11.38
2019-04-07T04:36:40.398Z,11.52
2019-04-07T04:37:41.230Z,11.52
2019-04-07T04:38:32.431Z,11.66
2019-04-07T04:39:31.537Z,11.52
2019-04-07T04:40:32.346Z,11.56
2019-04-07T04:41:31.431Z,11.43
2019-04-07T04:42:31.385Z,11.52
2019-04-07T04:43:40.356Z,11.43
2019-04-07T04:44:31.711Z,11.45
2019-04-07T04:45:31.715Z,11.31
2019-04-07T04:46:32.602Z,11.48
2019-04-07T04:47:31.322Z,11.40
2019-04-07T04:48:32.227Z,11.40
2019-04-07T04:49:31.299Z,11.46
2019-04-07T04:50:31.824Z,11.23
2019-04-07T04:51:35.536Z,11.27
2019-04-07T04:52:32.270Z,11.22
2019-04-07T04:53:32.056Z,11.28
2019-04-07T04:54:31.885Z,11.12
2019-04-07T04:55:31.887Z,11.15
2019-04-07T04:56:31.285Z,11.15
2019-04-07T04:57:32.050Z,11.12
2019-04-07T04:58:31.208Z,11.19
2019-04-07T04:59:31.292Z,11.18
2019-04-07T05:00:32.119Z,11.13
2019-04-07T05:01:31.199Z,11.11
2019-04-07T05:02:31.176Z,11.05
2019-04-07T05:03:31.589Z,11.05
2019-04-07T05:04:31.853Z,11.05
2019-04-07T05:05:31.129Z,11.09
2019-04-07T05:06:31.259Z,11.08
2019-04-07T05:07:31.103Z,11.08
2019-04-07T05:08:31.188Z,11.08
2019-04-07T05:09:41.093Z,11.01
2019-04-07T05:10:32.248Z,11.08
2019-04-07T05:11:31.600Z,11.13
2019-04-07T05:12:31.360Z,11.05
2019-04-07T05:13:31.581Z,11.05
2019-04-07T05:14:31.055Z,11.01
2019-04-07T05:15:31.022Z,11.01
2019-04-07T05:16:31.032Z,11.03
2019-04-07T05:17:31.148Z,11.03
2019-04-07T05:18:30.979Z,11.08
2019-04-07T05:19:30.967Z,10.87
2019-04-07T05:20:30.959Z,11.03
2019-04-07T05:21:31.512Z,10.95
2019-04-07T05:22:30.970Z,10.93
2019-04-07T05:23:31.737Z,10.91
2019-04-07T05:24:31.274Z,10.98
2019-04-07T05:25:31.068Z,10.91
2019-04-07T05:26:31.203Z,10.93
2019-04-07T05:27:30.915Z,11.03
2019-04-07T05:28:32.647Z,10.87
2019-04-07T05:29:32.471Z,11.11
2019-04-07T05:30:31.456Z,11.03
2019-04-07T05:31:30.898Z,11.04
2019-04-07T05:32:31.118Z,11.03
2019-04-07T05:33:30.912Z,10.98
2019-04-07T05:34:31.151Z,11.05
2019-04-07T05:35:30.921Z,11.04
2019-04-07T05:36:31.367Z,11.05
2019-04-07T05:37:31.055Z,11.00
2019-04-07T05:38:31.166Z,11.09
2019-04-07T05:39:30.973Z,11.09
2019-04-07T05:40:31.070Z,11.01
2019-04-07T05:41:31.230Z,11.04
2019-04-07T05:42:31.183Z,11.16
2019-04-07T05:43:30.833Z,11.16
2019-04-07T05:44:30.693Z,11.13
2019-04-07T05:45:31.515Z,11.05
2019-04-07T05:46:31.300Z,11.12
2019-04-07T05:47:31.381Z,11.09
2019-04-07T05:48:30.702Z,11.18
2019-04-07T05:49:31.387Z,11.13
2019-04-07T05:50:30.757Z,11.05
2019-04-07T05:51:31.364Z,11.11
2019-04-07T05:52:30.640Z,10.98
2019-04-07T05:53:30.650Z,11.16
2019-04-07T05:54:30.620Z,11.16
2019-04-07T05:55:30.594Z,11.16
2019-04-07T05:56:30.578Z,11.19
2019-04-07T05:57:33.357Z,11.20
2019-04-07T05:58:30.600Z,11.27
2019-04-07T05:59:30.540Z,11.18
2019-04-07T06:00:30.734Z,11.15
2019-04-07T06:01:31.246Z,11.38
2019-04-07T06:02:33.352Z,11.33
2019-04-07T06:03:30.834Z,11.33
2019-04-07T06:04:30.494Z,11.25
2019-04-07T06:05:30.628Z,11.34
2019-04-07T06:06:30.887Z,11.34
2019-04-07T06:07:31.944Z,11.52
2019-04-07T06:08:35.992Z,11.48
2019-04-07T06:09:33.514Z,11.40
2019-04-07T06:10:30.606Z,11.51
2019-04-07T06:11:33.028Z,11.48
2019-04-07T06:12:30.386Z,11.52
2019-04-07T06:13:30.410Z,11.56
2019-04-07T06:14:30.373Z,11.58
2019-04-07T06:15:30.380Z,11.66
2019-04-07T06:16:30.346Z,11.61
2019-04-07T06:17:30.361Z,11.67
2019-04-07T06:18:33.373Z,11.58
2019-04-07T06:19:30.366Z,11.69
2019-04-07T06:20:30.300Z,11.70
2019-04-07T06:21:30.305Z,11.85
2019-04-07T06:22:30.527Z,11.79
2019-04-07T06:23:30.861Z,11.84
2019-04-07T06:24:33.209Z,11.84
2019-04-07T06:25:34.737Z,11.82
2019-04-07T06:26:31.357Z,11.82
2019-04-07T06:27:30.614Z,11.99
2019-04-07T06:28:30.212Z,12.05
2019-04-07T06:29:30.226Z,11.97
2019-04-07T06:30:32.144Z,11.89
2019-04-07T06:31:32.200Z,11.99
2019-04-07T06:32:30.168Z,11.95
2019-04-07T06:33:30.515Z,11.97
2019-04-07T06:34:30.176Z,12.07
2019-04-07T06:35:30.163Z,12.00
2019-04-07T06:36:30.799Z,12.11
2019-04-07T06:37:30.802Z,12.13
2019-04-07T06:38:34.244Z,12.21
2019-04-07T06:39:32.263Z,12.25
2019-04-07T06:40:30.611Z,12.22
2019-04-07T06:41:31.434Z,12.30
2019-04-07T06:42:32.388Z,12.29
2019-04-07T06:43:30.287Z,12.33
2019-04-07T06:44:30.173Z,12.33
2019-04-07T06:45:30.574Z,12.33
2019-04-07T06:46:30.622Z,12.28
2019-04-07T06:47:31.395Z,12.44
2019-04-07T06:48:30.623Z,12.43
2019-04-07T06:49:30.007Z,12.46
2019-04-07T06:50:29.998Z,12.53
2019-04-07T06:51:31.138Z,12.47
2019-04-07T06:52:30.285Z,12.48
2019-04-07T06:53:30.189Z,12.62
2019-04-07T06:54:29.933Z,12.51
2019-04-07T06:55:32.694Z,12.51
2019-04-07T06:56:32.204Z,12.62
2019-04-07T06:57:29.969Z,12.69
2019-04-07T06:58:29.969Z,12.62
2019-04-07T06:59:29.865Z,12.72
2019-04-07T07:00:30.067Z,12.68
2019-04-07T07:01:30.643Z,12.66
2019-04-07T07:02:31.651Z,12.69
2019-04-07T07:03:33.591Z,12.77
2019-04-07T07:04:31.099Z,12.87
2019-04-07T07:05:30.067Z,12.87
2019-04-07T07:06:29.829Z,12.91
2019-04-07T07:07:29.772Z,12.84
2019-04-07T07:08:33.539Z,12.98
2019-04-07T07:09:30.744Z,13.02
2019-04-07T07:10:32.541Z,13.01
2019-04-07T07:11:32.409Z,13.02
2019-04-07T07:12:35.659Z,13.02
2019-04-07T07:13:34.278Z,13.21
2019-04-07T07:14:34.800Z,13.16
2019-04-07T07:15:34.212Z,13.24
2019-04-07T07:16:30.705Z,13.17
2019-04-07T07:17:29.662Z,13.30
2019-04-07T07:18:29.651Z,13.23
2019-04-07T07:19:29.763Z,13.38
2019-04-07T07:20:30.444Z,13.26
2019-04-07T07:21:34.011Z,13.30
2019-04-07T07:22:31.140Z,13.39
2019-04-07T07:23:29.595Z,13.38
2019-04-07T07:24:29.612Z,13.43
2019-04-07T07:25:32.007Z,13.45
2019-04-07T07:26:32.937Z,13.58
2019-04-07T07:27:29.587Z,13.65
2019-04-07T07:28:29.543Z,13.60
2019-04-07T07:29:29.988Z,13.58
2019-04-07T07:30:29.986Z,13.68
2019-04-07T07:31:29.501Z,13.63
2019-04-07T07:32:30.096Z,13.73
2019-04-07T07:33:30.698Z,13.68
2019-04-07T07:34:29.526Z,13.80
2019-04-07T07:35:29.712Z,13.78
2019-04-07T07:36:29.446Z,13.94
2019-04-07T07:37:30.112Z,13.82
2019-04-07T07:38:32.090Z,13.91
2019-04-07T07:39:29.616Z,14.01
2019-04-07T07:40:29.908Z,14.08
2019-04-07T07:41:29.396Z,14.09
2019-04-07T07:42:30.491Z,14.15
2019-04-07T07:43:30.229Z,14.26
2019-04-07T07:44:31.265Z,14.22
2019-04-07T07:45:29.375Z,14.22
2019-04-07T07:46:29.430Z,14.36
2019-04-07T07:47:29.683Z,14.38
2019-04-07T07:48:29.320Z,14.37
2019-04-07T07:49:32.524Z,14.44
2019-04-07T07:50:30.294Z,14.52
2019-04-07T07:51:29.338Z,14.53
2019-04-07T07:52:29.784Z,14.51
2019-04-07T07:53:29.285Z,14.45
2019-04-07T07:54:30.429Z,14.66
2019-04-07T07:55:33.840Z,14.67
2019-04-07T07:56:30.311Z,14.69
2019-04-07T07:57:29.216Z,14.78
2019-04-07T07:58:32.717Z,14.79
2019-04-07T07:59:33.142Z,14.87
2019-04-07T08:00:30.929Z,14.85
2019-04-07T08:01:29.922Z,14.90
2019-04-07T08:02:31.090Z,14.93
2019-04-07T08:03:29.179Z,14.93
2019-04-07T08:04:29.191Z,14.99
2019-04-07T08:05:31.704Z,15.10
2019-04-07T08:06:29.491Z,15.05
2019-04-07T08:07:29.104Z,15.17
2019-04-07T08:08:29.805Z,15.23
2019-04-07T08:09:29.096Z,15.08
2019-04-07T08:10:29.143Z,15.30
2019-04-07T08:11:32.186Z,15.25
2019-04-07T08:12:32.425Z,15.43
2019-04-07T08:13:30.082Z,15.44
2019-04-07T08:14:29.325Z,15.40
2019-04-07T08:15:32.253Z,15.38
2019-04-07T08:16:31.065Z,15.45
2019-04-07T08:17:31.611Z,15.59
2019-04-07T08:18:29.620Z,15.56
2019-04-07T08:19:30.415Z,15.47
2019-04-07T08:20:29.670Z,15.48
2019-04-07T08:21:29.135Z,15.58
2019-04-07T08:22:33.849Z,15.62
2019-04-07T08:23:29.927Z,15.68
2019-04-07T08:24:29.319Z,15.77
2019-04-07T08:25:29.160Z,15.72
2019-04-07T08:26:28.954Z,15.85
2019-04-07T08:27:31.737Z,15.80
2019-04-07T08:28:28.878Z,15.87
2019-04-07T08:29:29.134Z,15.91
2019-04-07T08:30:28.846Z,16.03
2019-04-07T08:31:29.279Z,16.03
2019-04-07T08:32:32.003Z,16.13
2019-04-07T08:33:29.618Z,16.13
2019-04-07T08:34:31.640Z,16.21
2019-04-07T08:35:28.893Z,16.21
2019-04-07T08:36:29.126Z,16.22
2019-04-07T08:37:28.766Z,16.28
2019-04-07T08:38:28.766Z,16.28
2019-04-07T08:39:32.363Z,16.40
2019-04-07T08:40:30.853Z,16.37
2019-04-07T08:41:28.879Z,16.26
2019-04-07T08:42:28.715Z,16.32
2019-04-07T08:43:28.713Z,16.49
2019-04-07T08:44:30.344Z,16.37
2019-04-07T08:45:31.660Z,16.46
2019-04-07T08:46:31.755Z,16.49
2019-04-07T08:47:28.976Z,16.49
2019-04-07T08:48:28.948Z,16.52
2019-04-07T08:49:32.085Z,16.54
2019-04-07T08:50:28.784Z,16.57
2019-04-07T08:51:30.783Z,16.67
2019-04-07T08:52:28.626Z,16.70
2019-04-07T08:53:29.412Z,16.70
2019-04-07T08:54:28.650Z,16.76
2019-04-07T08:55:28.604Z,16.70
2019-04-07T08:56:29.054Z,16.83
2019-04-07T08:57:30.492Z,16.82
2019-04-07T08:58:30.227Z,16.79
2019-04-07T08:59:30.246Z,16.83
2019-04-07T09:00:29.398Z,16.80
2019-04-07T09:01:29.676Z,16.91
2019-04-07T09:02:30.364Z,16.83
2019-04-07T09:03:29.163Z,16.88
2019-04-07T09:04:28.486Z,16.83
2019-04-07T09:05:30.959Z,16.83
2019-04-07T09:06:29.389Z,16.90
2019-04-07T09:07:28.713Z,16.91
2019-04-07T09:08:28.427Z,17.01
2019-04-07T09:09:34.149Z,16.91
2019-04-07T09:10:29.429Z,17.01
2019-04-07T09:11:28.394Z,17.06
2019-04-07T09:12:30.930Z,17.07
2019-04-07T09:13:31.670Z,17.10
2019-04-07T09:14:29.539Z,17.14
2019-04-07T09:15:28.384Z,17.14
2019-04-07T09:16:29.032Z,17.24
2019-04-07T09:17:33.117Z,17.22
2019-04-07T09:18:29.321Z,17.24
2019-04-07T09:19:28.813Z,17.35
2019-04-07T09:20:29.178Z,17.32
2019-04-07T09:21:38.004Z,17.28
2019-04-07T09:22:30.676Z,17.46
2019-04-07T09:23:28.583Z,17.43
2019-04-07T09:24:31.390Z,17.56
2019-04-07T09:25:28.328Z,17.47
2019-04-07T09:26:28.306Z,17.57
2019-04-07T09:27:28.239Z,17.63
2019-04-07T09:28:28.514Z,17.73
2019-04-07T09:29:29.994Z,17.71
2019-04-07T09:30:28.199Z,17.79
2019-04-07T09:31:28.217Z,17.76
2019-04-07T09:32:28.976Z,17.83
2019-04-07T09:33:28.673Z,17.93
2019-04-07T09:34:28.200Z,17.79
2019-04-07T09:35:28.138Z,17.86
2019-04-07T09:36:28.541Z,17.99
2019-04-07T09:37:28.466Z,18.12
2019-04-07T09:38:28.442Z,18.03
2019-04-07T09:39:31.350Z,18.11
2019-04-07T09:40:29.074Z,18.11
2019-04-07T09:41:29.655Z,18.12
2019-04-07T09:42:28.102Z,18.24
2019-04-07T09:43:30.254Z,18.23
2019-04-07T09:44:28.960Z,18.33
2019-04-07T09:45:28.763Z,18.45
2019-04-07T09:46:28.022Z,18.42
2019-04-07T09:47:28.045Z,18.45
2019-04-07T09:48:28.182Z,18.57
2019-04-07T09:49:27.988Z,18.48
2019-04-07T09:50:28.800Z,18.57
2019-04-07T09:51:28.053Z,18.58
2019-04-07T09:52:28.327Z,18.66
2019-04-07T09:53:28.623Z,18.68
2019-04-07T09:54:27.921Z,18.70
2019-04-07T09:55:27.939Z,18.78
2019-04-07T09:56:31.416Z,18.79
2019-04-07T09:57:27.923Z,18.81
2019-04-07T09:58:27.943Z,18.94
2019-04-07T09:59:28.486Z,18.97
2019-04-07T10:00:27.854Z,18.97
2019-04-07T10:01:29.012Z,18.91
2019-04-07T10:02:31.865Z,19.01
2019-04-07T10:03:28.878Z,18.97
2019-04-07T10:04:27.819Z,19.05
2019-04-07T10:05:27.802Z,19.09
2019-04-07T10:06:27.794Z,19.16
2019-04-07T10:07:28.353Z,19.19
2019-04-07T10:08:28.200Z,19.13
2019-04-07T10:09:27.984Z,19.07
2019-04-07T10:10:28.573Z,19.17
2019-04-07T10:11:28.456Z,19.27
2019-04-07T10:12:29.835Z,19.30
2019-04-07T10:13:28.514Z,19.31
2019-04-07T10:14:27.708Z,19.22
2019-04-07T10:15:27.871Z,19.38
2019-04-07T10:16:28.260Z,19.41
2019-04-07T10:17:27.789Z,19.45
2019-04-07T10:18:28.546Z,19.38
2019-04-07T10:19:28.256Z,19.32
2019-04-07T10:20:27.634Z,19.56
2019-04-07T10:21:27.630Z,19.52
2019-04-07T10:22:27.707Z,19.53
2019-04-07T10:23:27.601Z,19.64
2019-04-07T10:24:27.623Z,19.60
2019-04-07T10:25:29.007Z,19.71
2019-04-07T10:26:27.572Z,19.84
2019-04-07T10:27:27.551Z,19.79
2019-04-07T10:28:27.745Z,19.89
2019-04-07T10:29:27.631Z,19.81
2019-04-07T10:30:27.521Z,20.02
2019-04-07T10:31:28.223Z,19.93
2019-04-07T10:32:27.881Z,19.94
2019-04-07T10:33:27.489Z,20.02
2019-04-07T10:34:27.497Z,20.04
2019-04-07T10:35:27.472Z,19.93
2019-04-07T10:36:28.100Z,20.05
2019-04-07T10:37:27.444Z,20.11
2019-04-07T10:38:28.087Z,19.97
2019-04-07T10:39:27.571Z,20.02
2019-04-07T10:40:27.547Z,20.08
2019-04-07T10:41:28.161Z,20.19
2019-04-07T10:42:28.254Z,20.09
2019-04-07T10:43:28.156Z,20.08
2019-04-07T10:44:27.401Z,20.12
2019-04-07T10:45:27.358Z,20.23
2019-04-07T10:46:28.297Z,20.11
2019-04-07T10:47:27.977Z,20.14
2019-04-07T10:48:27.336Z,20.18
2019-04-07T10:49:27.436Z,20.29
2019-04-07T10:50:27.335Z,20.34
2019-04-07T10:51:27.462Z,20.34
2019-04-07T10:52:27.280Z,20.46
2019-04-07T10:53:27.341Z,20.58
2019-04-07T10:54:27.398Z,20.58
2019-04-07T10:55:27.692Z,20.60
2019-04-07T10:56:27.688Z,20.55
2019-04-07T10:57:27.747Z,20.53
2019-04-07T10:58:27.945Z,20.64
2019-04-07T10:59:27.904Z,20.74
2019-04-07T11:00:27.773Z,20.71
2019-04-07T11:01:27.170Z,20.71
2019-04-07T11:02:27.610Z,20.83
2019-04-07T11:03:27.360Z,20.88
2019-04-07T11:04:27.352Z,21.03
2019-04-07T11:05:27.908Z,21.04
2019-04-07T11:06:27.301Z,21.01
2019-04-07T11:07:27.116Z,21.01
2019-04-07T11:08:27.096Z,21.04
2019-04-07T11:09:28.251Z,21.04
2019-04-07T11:10:34.487Z,21.07
2019-04-07T11:11:28.092Z,21.10
2019-04-07T11:12:27.573Z,21.28
2019-04-07T11:13:27.627Z,21.26
2019-04-07T11:14:27.036Z,21.43
2019-04-07T11:15:27.141Z,21.45
2019-04-07T11:16:27.047Z,21.59
2019-04-07T11:17:27.254Z,21.62
2019-04-07T11:18:27.632Z,21.59
2019-04-07T11:19:28.425Z,21.50
2019-04-07T11:20:26.981Z,21.51
2019-04-07T11:21:26.990Z,21.60
2019-04-07T11:22:26.939Z,21.51
2019-04-07T11:23:27.016Z,21.44
2019-04-07T11:24:27.787Z,21.59
2019-04-07T11:25:27.323Z,21.56
2019-04-07T11:26:27.391Z,21.62
2019-04-07T11:27:27.641Z,21.55
2019-04-07T11:28:28.820Z,21.59
2019-04-07T11:29:26.864Z,21.65
2019-04-07T11:30:27.339Z,21.65
2019-04-07T11:31:27.682Z,21.58
2019-04-07T11:32:27.143Z,21.53
2019-04-07T11:33:26.924Z,21.50
2019-04-07T11:34:27.109Z,21.41
2019-04-07T11:35:29.614Z,21.29
2019-04-07T11:36:26.810Z,21.44
2019-04-07T11:37:27.488Z,21.34
2019-04-07T11:38:26.791Z,21.43
2019-04-07T11:39:27.465Z,21.37
2019-04-07T11:40:27.056Z,21.53
2019-04-07T11:41:28.664Z,21.48
2019-04-07T11:42:26.746Z,21.59
2019-04-07T11:43:27.023Z,21.48
2019-04-07T11:44:26.704Z,21.55
2019-04-07T11:45:26.979Z,21.45
2019-04-07T11:46:27.143Z,21.59
2019-04-07T11:47:26.759Z,21.47
2019-04-07T11:48:27.498Z,21.48
2019-04-07T11:49:26.735Z,21.53
2019-04-07T11:50:26.709Z,21.51
2019-04-07T11:51:26.618Z,21.55
2019-04-07T11:52:26.639Z,21.58
2019-04-07T11:53:27.453Z,21.56
2019-04-07T11:54:26.617Z,21.48
2019-04-07T11:55:27.339Z,21.50
2019-04-07T11:56:26.570Z,21.44
2019-04-07T11:57:27.115Z,21.48
2019-04-07T11:58:31.384Z,21.55
2019-04-07T11:59:27.536Z,21.55
2019-04-07T12:00:26.972Z,21.66
2019-04-07T12:01:27.110Z,21.73
2019-04-07T12:02:27.308Z,21.66
2019-04-07T12:03:27.986Z,21.65
2019-04-07T12:04:26.583Z,21.73
2019-04-07T12:05:26.813Z,21.82
2019-04-07T12:06:26.875Z,21.82
2019-04-07T12:07:26.502Z,21.97
2019-04-07T12:08:32.310Z,22.11
2019-04-07T12:09:28.219Z,22.06
2019-04-07T12:10:26.991Z,22.15
2019-04-07T12:11:26.391Z,22.25
2019-04-07T12:12:26.589Z,22.19
2019-04-07T12:13:26.688Z,22.21
2019-04-07T12:14:26.368Z,22.25
2019-04-07T12:15:28.659Z,22.19
2019-04-07T12:16:28.710Z,22.28
2019-04-07T12:17:26.330Z,22.33
2019-04-07T12:18:26.723Z,22.37
2019-04-07T12:19:26.306Z,22.38
2019-04-07T12:20:29.022Z,22.40
2019-04-07T12:21:27.854Z,22.40
2019-04-07T12:22:27.108Z,22.46
2019-04-07T12:23:27.777Z,22.52
2019-04-07T12:24:28.637Z,22.59
2019-04-07T12:25:26.893Z,22.53
2019-04-07T12:26:27.005Z,22.53
2019-04-07T12:27:26.995Z,22.52
2019-04-07T12:28:26.843Z,22.48
2019-04-07T12:29:27.105Z,22.52
2019-04-07T12:30:26.468Z,22.36
2019-04-07T12:31:26.917Z,22.41
2019-04-07T12:32:26.313Z,22.48
2019-04-07T12:33:26.579Z,22.41
2019-04-07T12:34:26.499Z,22.51
2019-04-07T12:35:26.287Z,22.52
2019-04-07T12:36:30.228Z,22.49
2019-04-07T12:37:26.258Z,22.49
2019-04-07T12:38:26.420Z,22.55
2019-04-07T12:39:26.860Z,22.59
2019-04-07T12:40:26.087Z,22.52
2019-04-07T12:41:27.722Z,22.51
2019-04-07T12:42:26.689Z,22.58
2019-04-07T12:43:26.150Z,22.67
2019-04-07T12:44:26.056Z,22.68
2019-04-07T12:45:26.665Z,22.76
2019-04-07T12:46:26.010Z,22.81
2019-04-07T12:47:26.688Z,22.73
2019-04-07T12:48:29.760Z,22.78
2019-04-07T12:49:27.004Z,22.76
2019-04-07T12:50:26.364Z,22.78
2019-04-07T12:51:25.952Z,22.59
2019-04-07T12:52:28.050Z,22.68